Terminal Aerodrome Forecast
Issued by NWS Albany, NY

Home | Current Version | Previous Version | Text Only | Print | Product List | Glossary On
Versions: 1 2 3 4 5 6 7 8 9 10 11 12 13 14 15 16 17 18 19 20 21
000
FTUS41 KALY 271400 AAB
TAFGFL
TAF AMD
KGFL 271451Z 2715/2812 02009KT P6SM OVC035
      TEMPO 2715/2719 OVC030
     FM272100 32006KT 2SM -SN BR SCT012 OVC022
     FM281100 31005KT P6SM BKN040=

USA.gov is the U.S. government's official web portal to all federal, state and local government web resources and services.